createdAt,value
2022-11-05T00:00:39.921Z,79.47
2022-11-05T00:03:34.445Z,69.53
2022-11-05T00:06:20.375Z,79.30
2022-11-05T00:09:05.776Z,73.03
2022-11-05T00:11:52.891Z,73.10
2022-11-05T00:14:38.571Z,83.83
2022-11-05T00:17:06.787Z,96.63
2022-11-05T00:19:37.522Z,92.83
2022-11-05T00:22:23.155Z,107.03
2022-11-05T00:25:11.840Z,85.10
2022-11-05T00:27:41.506Z,101.40
2022-11-05T00:30:13.998Z,111.80
2022-11-05T00:32:42.250Z,212.63
2022-11-05T00:35:11.089Z,143.40
2022-11-05T00:37:39.505Z,90.10
2022-11-05T00:40:09.485Z,81.50
2022-11-05T00:43:01.094Z,71.43
2022-11-05T00:45:29.700Z,75.50
2022-11-05T00:48:16.047Z,73.73
2022-11-05T00:50:44.444Z,71.60
2022-11-05T00:53:12.855Z,73.83
2022-11-05T00:55:42.979Z,68.60
2022-11-05T00:58:14.527Z,73.20
2022-11-05T01:00:45.081Z,72.83
2022-11-05T01:03:15.351Z,70.93
2022-11-05T01:05:48.029Z,67.00
2022-11-05T01:08:17.895Z,68.53
2022-11-05T01:10:50.970Z,65.47
2022-11-05T01:13:22.329Z,68.20
2022-11-05T01:15:53.714Z,71.37
2022-11-05T01:18:23.480Z,75.47
2022-11-05T01:20:52.180Z,69.73
2022-11-05T01:23:20.931Z,70.13
2022-11-05T01:25:49.546Z,77.17
2022-11-05T01:28:17.944Z,68.23
2022-11-05T01:30:55.882Z,76.57
2022-11-05T01:33:24.921Z,78.37
2022-11-05T01:35:55.446Z,77.53
2022-11-05T01:38:23.773Z,70.67
2022-11-05T01:40:52.212Z,73.33
2022-11-05T01:43:24.753Z,78.77
2022-11-05T01:45:57.893Z,81.40
2022-11-05T01:48:30.241Z,73.90
2022-11-05T01:51:03.361Z,73.83
2022-11-05T01:53:37.705Z,70.47
2022-11-05T01:56:09.538Z,76.53
2022-11-05T01:58:42.264Z,70.03
2022-11-05T02:01:13.125Z,86.67
2022-11-05T02:03:42.442Z,77.20
2022-11-05T02:06:10.913Z,79.17
2022-11-05T02:08:51.973Z,76.50
2022-11-05T02:11:20.878Z,85.13
2022-11-05T02:13:49.725Z,79.87
2022-11-05T02:16:30.937Z,74.07
2022-11-05T02:19:14.300Z,83.33
2022-11-05T02:21:59.254Z,76.33
2022-11-05T02:24:52.910Z,76.47
2022-11-05T02:27:29.542Z,76.03
2022-11-05T02:30:36.162Z,72.23
2022-11-05T02:33:19.130Z,81.57
2022-11-05T02:36:07.686Z,75.50
2022-11-05T02:38:41.746Z,77.03
2022-11-05T02:41:19.649Z,91.97
2022-11-05T02:44:00.427Z,75.43
2022-11-05T02:46:35.352Z,78.13
2022-11-05T02:49:14.637Z,75.90
2022-11-05T02:51:49.294Z,73.60
2022-11-05T02:54:22.125Z,80.90
2022-11-05T02:56:54.008Z,83.83
2022-11-05T02:59:22.252Z,78.07
2022-11-05T03:01:54.215Z,72.70
2022-11-05T03:04:27.604Z,85.10
2022-11-05T03:07:12.563Z,84.37
2022-11-05T03:10:01.417Z,76.00
2022-11-05T03:12:37.172Z,81.17
2022-11-05T03:15:17.397Z,84.97
2022-11-05T03:18:00.232Z,81.40
2022-11-05T03:20:36.916Z,84.43
2022-11-05T03:23:13.637Z,79.10
2022-11-05T03:25:46.163Z,83.97
2022-11-05T03:28:16.051Z,88.07
2022-11-05T03:30:47.195Z,82.37
2022-11-05T03:33:21.914Z,87.17
2022-11-05T03:35:55.346Z,84.70
2022-11-05T03:38:27.014Z,92.17
2022-11-05T03:40:58.661Z,87.07
2022-11-05T03:43:32.135Z,85.97
2022-11-05T03:46:05.420Z,96.20
2022-11-05T03:48:37.775Z,83.17
2022-11-05T03:51:13.828Z,90.27
2022-11-05T03:53:48.311Z,87.50
2022-11-05T03:56:21.851Z,78.33
2022-11-05T03:58:58.488Z,85.13
2022-11-05T04:01:27.982Z,86.20
2022-11-05T04:03:56.284Z,90.10
2022-11-05T04:06:43.495Z,84.30
2022-11-05T04:09:29.285Z,77.77
2022-11-05T04:12:14.910Z,76.70
2022-11-05T04:14:43.218Z,81.80
2022-11-05T04:17:10.537Z,77.47
2022-11-05T04:19:58.470Z,84.57
2022-11-05T04:22:47.046Z,71.10
2022-11-05T04:25:16.630Z,77.77
2022-11-05T04:27:45.207Z,80.77
2022-11-05T04:30:19.296Z,81.83
2022-11-05T04:33:01.880Z,76.60
2022-11-05T04:35:31.605Z,69.47
2022-11-05T04:38:05.107Z,71.27
2022-11-05T04:40:33.744Z,75.47
2022-11-05T04:43:04.877Z,73.20
2022-11-05T04:45:35.515Z,68.33
2022-11-05T04:48:05.648Z,75.40
2022-11-05T04:50:34.095Z,71.30
2022-11-05T04:53:03.782Z,73.73
2022-11-05T04:55:32.077Z,71.00
2022-11-05T04:58:00.348Z,76.40
2022-11-05T05:00:28.629Z,63.50
2022-11-05T05:02:57.000Z,65.93
2022-11-05T05:05:25.259Z,69.70
2022-11-05T05:07:53.507Z,69.27
2022-11-05T05:10:23.164Z,68.83
2022-11-05T05:12:51.378Z,72.77
2022-11-05T05:15:19.788Z,67.90
2022-11-05T05:17:52.416Z,68.60
2022-11-05T05:20:38.777Z,66.70
2022-11-05T05:23:07.158Z,72.97
2022-11-05T05:25:36.755Z,65.47
2022-11-05T05:28:05.036Z,67.03
2022-11-05T05:30:33.374Z,72.77
2022-11-05T05:33:03.890Z,63.23
2022-11-05T05:35:32.323Z,67.83
2022-11-05T05:38:00.806Z,68.30
2022-11-05T05:40:31.423Z,69.33
2022-11-05T05:43:04.024Z,70.37
2022-11-05T05:45:32.223Z,68.93
2022-11-05T05:48:03.961Z,68.00
2022-11-05T05:50:32.184Z,65.53
2022-11-05T05:53:03.059Z,64.20
2022-11-05T05:55:31.339Z,76.30
2022-11-05T05:58:04.055Z,71.03
2022-11-05T06:00:32.398Z,68.33
2022-11-05T06:03:00.709Z,73.07
2022-11-05T06:05:29.098Z,72.97
2022-11-05T06:07:58.078Z,74.20
2022-11-05T06:10:29.178Z,77.17
2022-11-05T06:12:57.661Z,73.47
2022-11-05T06:15:31.741Z,77.30
2022-11-05T06:18:03.028Z,77.03
2022-11-05T06:20:31.239Z,78.40
2022-11-05T06:22:59.658Z,77.13
2022-11-05T06:25:28.225Z,87.27
2022-11-05T06:27:56.544Z,81.40
2022-11-05T06:30:26.227Z,81.20
2022-11-05T06:32:54.585Z,85.00
2022-11-05T06:35:22.868Z,83.53
2022-11-05T06:37:51.166Z,81.27
2022-11-05T06:40:19.457Z,88.77
2022-11-05T06:42:47.933Z,98.07
2022-11-05T06:45:16.335Z,114.53
2022-11-05T06:47:46.018Z,128.83
2022-11-05T06:50:14.305Z,97.07
2022-11-05T06:52:42.682Z,97.10
2022-11-05T06:55:10.989Z,104.00
2022-11-05T06:57:39.805Z,88.57
2022-11-05T07:00:09.993Z,92.90
2022-11-05T07:02:38.269Z,81.80
2022-11-05T07:05:12.143Z,125.30
2022-11-05T07:07:40.651Z,135.33
2022-11-05T07:10:12.157Z,98.20
2022-11-05T07:12:40.447Z,138.30
2022-11-05T07:15:10.262Z,93.80
2022-11-05T07:17:39.077Z,133.17
2022-11-05T07:20:11.967Z,155.83
2022-11-05T07:22:40.197Z,154.07
2022-11-05T07:25:09.355Z,105.43
2022-11-05T07:27:40.898Z,105.63
2022-11-05T07:30:10.805Z,104.83
2022-11-05T07:32:39.759Z,102.13
2022-11-05T07:35:10.991Z,104.30
2022-11-05T07:37:45.769Z,99.40
2022-11-05T07:40:15.613Z,80.73
2022-11-05T07:42:44.559Z,94.03
2022-11-05T07:45:13.868Z,115.93
2022-11-05T07:47:47.917Z,94.93
2022-11-05T07:50:18.716Z,98.60
2022-11-05T07:52:48.066Z,76.07
2022-11-05T07:55:16.796Z,82.27
2022-11-05T07:57:46.104Z,72.67
2022-11-05T08:00:17.822Z,60.70
2022-11-05T08:02:46.361Z,61.30
2022-11-05T08:05:14.978Z,68.63
2022-11-05T08:07:44.606Z,69.93
2022-11-05T08:10:12.875Z,76.83
2022-11-05T08:12:41.157Z,74.90
2022-11-05T08:15:11.474Z,66.90
2022-11-05T08:17:42.112Z,75.17
2022-11-05T08:20:12.011Z,63.90
2022-11-05T08:22:45.167Z,59.40
2022-11-05T08:25:14.167Z,65.50
2022-11-05T08:27:42.503Z,63.23
2022-11-05T08:30:11.722Z,60.17
2022-11-05T08:32:40.000Z,66.53
2022-11-05T08:35:09.038Z,60.90
2022-11-05T08:37:37.401Z,60.50
2022-11-05T08:40:08.486Z,58.42
2022-11-05T08:42:36.771Z,55.80
2022-11-05T08:45:05.739Z,54.20
2022-11-05T08:47:34.072Z,50.27
2022-11-05T08:50:02.291Z,54.00
2022-11-05T08:52:30.586Z,52.77
2022-11-05T08:54:58.806Z,61.33
2022-11-05T08:57:28.517Z,49.33
2022-11-05T08:59:56.726Z,45.10
2022-11-05T09:02:25.520Z,46.43
2022-11-05T09:04:53.921Z,41.20
2022-11-05T09:07:23.112Z,49.93
2022-11-05T09:09:51.375Z,41.13
2022-11-05T09:12:19.664Z,42.67
2022-11-05T09:14:49.408Z,42.83
2022-11-05T09:17:19.858Z,45.20
2022-11-05T09:19:48.368Z,44.43
2022-11-05T09:22:16.679Z,43.63
2022-11-05T09:24:45.069Z,47.50
2022-11-05T09:27:14.731Z,42.03
2022-11-05T09:29:43.247Z,46.43
2022-11-05T09:32:13.208Z,40.10
2022-11-05T09:34:44.434Z,35.17
2022-11-05T09:37:13.042Z,35.90
2022-11-05T09:39:41.372Z,35.63
2022-11-05T09:42:11.180Z,34.87
2022-11-05T09:44:45.045Z,29.85
2022-11-05T09:47:18.977Z,32.23
2022-11-05T09:49:50.347Z,31.93
2022-11-05T09:52:22.812Z,39.47
2022-11-05T09:54:51.570Z,35.43
2022-11-05T09:57:25.541Z,33.13
2022-11-05T09:59:56.477Z,33.65
2022-11-05T10:02:30.417Z,30.17
2022-11-05T10:05:09.919Z,26.38
2022-11-05T10:07:44.716Z,25.45
2022-11-05T10:10:27.959Z,30.88
2022-11-05T10:13:00.682Z,25.58
2022-11-05T10:15:32.558Z,30.65
2022-11-05T10:18:07.247Z,28.67
2022-11-05T10:20:38.204Z,26.20
2022-11-05T10:23:13.122Z,28.30
2022-11-05T10:25:44.858Z,34.72
2022-11-05T10:28:18.860Z,31.57
2022-11-05T10:30:48.855Z,26.88
2022-11-05T10:33:29.051Z,27.05
2022-11-05T10:36:02.262Z,29.35
2022-11-05T10:38:30.833Z,19.90
2022-11-05T10:41:10.630Z,21.90
2022-11-05T10:43:43.443Z,17.52
2022-11-05T10:46:25.722Z,20.15
2022-11-05T10:49:12.104Z,18.83
2022-11-05T10:51:40.697Z,22.60
2022-11-05T10:54:17.026Z,19.08
2022-11-05T10:56:45.575Z,21.08
2022-11-05T10:59:25.160Z,19.50
2022-11-05T11:02:02.623Z,19.15
2022-11-05T11:04:37.661Z,15.73
2022-11-05T11:07:07.189Z,16.38
2022-11-05T11:09:37.647Z,15.18
2022-11-05T11:12:13.095Z,17.20
2022-11-05T11:14:41.534Z,16.40
2022-11-05T11:17:27.858Z,15.98
2022-11-05T11:20:26.024Z,14.38
2022-11-05T11:23:03.104Z,9.48
2022-11-05T11:25:41.222Z,8.85
2022-11-05T11:28:18.968Z,9.82
2022-11-05T11:30:52.989Z,10.57
2022-11-05T11:33:27.802Z,5.30
2022-11-05T11:35:57.953Z,6.82
2022-11-05T11:38:30.391Z,9.10
2022-11-05T11:41:04.590Z,8.27
2022-11-05T11:43:36.205Z,9.27
2022-11-05T11:46:15.829Z,5.45
2022-11-05T11:48:47.593Z,7.40
2022-11-05T11:51:31.180Z,4.50
2022-11-05T11:54:01.121Z,4.53
2022-11-05T11:56:30.454Z,6.55
2022-11-05T11:59:02.743Z,6.35
2022-11-05T12:01:58.820Z,4.88
2022-11-05T12:04:48.455Z,4.85
2022-11-05T12:07:37.349Z,5.60
2022-11-05T12:10:31.381Z,6.20
2022-11-05T12:13:28.321Z,6.95
2022-11-05T12:16:01.803Z,5.03
2022-11-05T12:18:41.775Z,9.25
2022-11-05T12:21:29.499Z,10.98
2022-11-05T12:24:44.190Z,11.40
2022-11-05T12:27:25.397Z,7.53
2022-11-05T12:30:01.288Z,5.68
2022-11-05T12:33:00.154Z,6.35
2022-11-05T12:35:47.435Z,5.43
2022-11-05T12:38:32.878Z,8.45
2022-11-05T12:41:13.066Z,5.82
2022-11-05T12:43:54.619Z,5.43
2022-11-05T12:46:29.502Z,7.78
2022-11-05T12:49:23.462Z,9.68
2022-11-05T12:52:06.221Z,8.80
2022-11-05T12:54:48.320Z,7.50
2022-11-05T12:57:18.978Z,17.67
2022-11-05T12:59:53.048Z,8.27
2022-11-05T13:02:26.820Z,5.18
2022-11-05T13:05:00.420Z,5.93
2022-11-05T13:07:32.987Z,3.03
2022-11-05T13:10:06.965Z,4.15
2022-11-05T13:12:40.295Z,3.90
2022-11-05T13:15:19.835Z,6.53
2022-11-05T13:17:54.699Z,4.72
2022-11-05T13:20:26.579Z,7.75
2022-11-05T13:23:00.005Z,9.85
2022-11-05T13:25:31.091Z,5.85
2022-11-05T13:28:07.894Z,5.55
2022-11-05T13:30:41.570Z,5.25
2022-11-05T13:33:14.741Z,6.07
2022-11-05T13:35:49.466Z,5.38
2022-11-05T13:38:42.030Z,4.25
2022-11-05T13:41:36.175Z,4.90
2022-11-05T13:44:26.442Z,7.38
2022-11-05T13:47:18.013Z,9.63
2022-11-05T13:50:02.549Z,7.80
2022-11-05T13:52:49.044Z,8.50
2022-11-05T13:55:42.908Z,8.77
2022-11-05T13:58:28.719Z,7.38
2022-11-05T14:01:08.554Z,8.68
2022-11-05T14:03:37.716Z,7.95
2022-11-05T14:06:08.110Z,6.25
2022-11-05T14:08:41.613Z,8.90
2022-11-05T14:11:22.956Z,7.97
2022-11-05T14:13:55.710Z,6.40
2022-11-05T14:16:27.849Z,10.10
2022-11-05T14:19:29.766Z,10.05
2022-11-05T14:21:58.791Z,10.02
2022-11-05T14:24:43.137Z,9.45
2022-11-05T14:27:34.243Z,8.85
2022-11-05T14:30:03.309Z,8.27
2022-11-05T14:32:50.104Z,11.85
2022-11-05T14:35:38.716Z,7.57
2022-11-05T14:38:18.753Z,9.25
2022-11-05T14:40:48.158Z,11.52
2022-11-05T14:43:22.847Z,10.63
2022-11-05T14:45:56.568Z,9.82
2022-11-05T14:48:37.553Z,7.55
2022-11-05T14:51:28.314Z,10.10
2022-11-05T14:54:04.326Z,7.95
2022-11-05T14:56:44.306Z,11.95
2022-11-05T14:59:52.549Z,10.90
2022-11-05T15:02:25.061Z,9.27
2022-11-05T15:05:40.341Z,8.18
2022-11-05T15:08:37.212Z,8.15
2022-11-05T15:11:14.349Z,6.28
2022-11-05T15:13:52.360Z,10.77
2022-11-05T15:16:25.728Z,8.32
2022-11-05T15:18:55.584Z,10.55
2022-11-05T15:21:26.462Z,6.70
2022-11-05T15:23:57.690Z,6.72
2022-11-05T15:26:34.745Z,6.88
2022-11-05T15:29:03.109Z,7.25
2022-11-05T15:31:37.363Z,9.15
2022-11-05T15:34:19.013Z,8.18
2022-11-05T15:36:56.762Z,8.50
2022-11-05T15:39:32.257Z,7.43
2022-11-05T15:42:05.705Z,7.10
2022-11-05T15:44:39.109Z,9.13
2022-11-05T15:47:17.010Z,8.80
2022-11-05T15:49:46.707Z,5.18
2022-11-05T15:52:18.326Z,7.63
2022-11-05T15:54:47.010Z,7.63
2022-11-05T15:57:21.980Z,4.97
2022-11-05T15:59:50.626Z,5.07
2022-11-05T16:02:33.024Z,5.80
2022-11-05T16:05:06.711Z,8.60
2022-11-05T16:07:36.654Z,9.50
2022-11-05T16:10:08.638Z,5.68
2022-11-05T16:12:41.048Z,8.95
2022-11-05T16:15:24.277Z,6.88
2022-11-05T16:17:56.117Z,6.18
2022-11-05T16:20:30.785Z,10.68
2022-11-05T16:23:02.671Z,5.50
2022-11-05T16:25:39.042Z,8.73
2022-11-05T16:28:21.095Z,6.00
2022-11-05T16:31:00.197Z,4.57
2022-11-05T16:33:34.075Z,5.55
2022-11-05T16:36:02.419Z,6.53
2022-11-05T16:38:32.091Z,6.70
2022-11-05T16:41:00.494Z,11.23
2022-11-05T16:43:28.816Z,4.72
2022-11-05T16:46:01.991Z,5.32
2022-11-05T16:48:30.377Z,5.95
2022-11-05T16:50:58.669Z,6.38
2022-11-05T16:53:26.936Z,8.02
2022-11-05T16:55:56.639Z,8.75
2022-11-05T16:58:27.251Z,5.18
2022-11-05T17:01:03.060Z,6.55
2022-11-05T17:03:31.586Z,5.00
2022-11-05T17:05:59.837Z,6.47
2022-11-05T17:08:28.297Z,3.78
2022-11-05T17:11:00.326Z,6.63
2022-11-05T17:13:29.362Z,3.53
2022-11-05T17:15:57.749Z,5.97
2022-11-05T17:18:26.588Z,3.33
2022-11-05T17:20:56.591Z,3.50
2022-11-05T17:23:27.815Z,8.20
2022-11-05T17:26:01.052Z,5.40
2022-11-05T17:28:31.257Z,6.60
2022-11-05T17:31:00.462Z,8.32
2022-11-05T17:33:29.161Z,3.67
2022-11-05T17:35:57.740Z,2.90
2022-11-05T17:38:27.592Z,5.63
2022-11-05T17:40:55.919Z,5.28
2022-11-05T17:43:24.302Z,12.40
2022-11-05T17:45:55.179Z,3.88
2022-11-05T17:48:25.956Z,6.30
2022-11-05T17:50:54.228Z,4.97
2022-11-05T17:53:22.663Z,3.90
2022-11-05T17:55:50.963Z,5.95
2022-11-05T17:58:19.242Z,3.80
2022-11-05T18:00:48.502Z,6.38
2022-11-05T18:03:18.282Z,2.65
2022-11-05T18:05:46.709Z,4.40
2022-11-05T18:08:14.984Z,4.13
2022-11-05T18:10:43.929Z,10.32
2022-11-05T18:13:12.996Z,3.22
2022-11-05T18:15:42.118Z,4.20
2022-11-05T18:18:10.859Z,8.57
2022-11-05T18:20:40.609Z,4.72
2022-11-05T18:23:09.239Z,5.78
2022-11-05T18:25:37.616Z,3.95
2022-11-05T18:28:06.183Z,6.72
2022-11-05T18:30:35.221Z,2.88
2022-11-05T18:33:03.837Z,3.45
2022-11-05T18:35:32.431Z,4.22
2022-11-05T18:38:02.430Z,8.27
2022-11-05T18:40:30.873Z,4.97
2022-11-05T18:42:59.190Z,6.35
2022-11-05T18:45:29.922Z,3.15
2022-11-05T18:47:58.509Z,3.65
2022-11-05T18:50:27.346Z,5.53
2022-11-05T18:52:55.840Z,5.50
2022-11-05T18:55:25.993Z,6.05
2022-11-05T18:57:54.398Z,10.50
2022-11-05T19:00:22.949Z,8.00
2022-11-05T19:02:51.391Z,4.30
2022-11-05T19:05:29.004Z,4.63
2022-11-05T19:07:58.217Z,3.35
2022-11-05T19:10:28.578Z,4.55
2022-11-05T19:12:56.970Z,5.10
2022-11-05T19:15:25.397Z,3.65
2022-11-05T19:17:53.670Z,3.85
2022-11-05T19:20:22.014Z,7.70
2022-11-05T19:22:50.462Z,6.93
2022-11-05T19:25:19.121Z,5.68
2022-11-05T19:27:48.876Z,3.63
2022-11-05T19:30:17.469Z,4.00
2022-11-05T19:32:45.772Z,2.95
2022-11-05T19:35:14.096Z,8.50
2022-11-05T19:37:42.462Z,6.53
2022-11-05T19:40:12.024Z,8.80
2022-11-05T19:42:40.293Z,4.30
2022-11-05T19:45:30.373Z,7.00
2022-11-05T19:47:59.788Z,3.70
2022-11-05T19:50:28.409Z,3.97
2022-11-05T19:52:56.663Z,5.05
2022-11-05T19:55:25.476Z,4.50
2022-11-05T19:57:53.934Z,3.80
2022-11-05T20:00:23.866Z,3.78
2022-11-05T20:02:52.927Z,3.20
2022-11-05T20:05:21.403Z,6.32
2022-11-05T20:07:53.117Z,4.25
2022-11-05T20:10:23.754Z,6.13
2022-11-05T20:12:52.286Z,4.30
2022-11-05T20:15:20.724Z,5.32
2022-11-05T20:17:55.143Z,2.90
2022-11-05T20:20:23.853Z,3.83
2022-11-05T20:22:53.509Z,6.75
2022-11-05T20:25:21.781Z,6.60
2022-11-05T20:27:50.302Z,5.35
2022-11-05T20:30:18.995Z,5.38
2022-11-05T20:32:47.401Z,29.70
2022-11-05T20:35:17.082Z,5.63
2022-11-05T20:37:49.693Z,5.68
2022-11-05T20:40:21.067Z,10.00
2022-11-05T20:42:49.376Z,9.27
2022-11-05T20:45:17.707Z,5.63
2022-11-05T20:47:46.027Z,6.57
2022-11-05T20:50:14.281Z,4.85
2022-11-05T20:52:43.917Z,6.57
2022-11-05T20:55:12.538Z,5.53
2022-11-05T20:57:40.843Z,4.47
2022-11-05T21:00:10.386Z,6.55
2022-11-05T21:02:39.715Z,3.95
2022-11-05T21:05:09.109Z,4.35
2022-11-05T21:07:39.876Z,6.65
2022-11-05T21:10:10.018Z,4.53
2022-11-05T21:12:38.318Z,5.55
2022-11-05T21:15:07.775Z,6.80
2022-11-05T21:17:37.596Z,6.25
2022-11-05T21:20:06.819Z,8.15
2022-11-05T21:22:35.069Z,5.80
2022-11-05T21:25:03.371Z,5.57
2022-11-05T21:27:33.017Z,4.75
2022-11-05T21:30:01.431Z,4.53
2022-11-05T21:32:29.687Z,2.85
2022-11-05T21:34:59.976Z,6.82
2022-11-05T21:37:28.783Z,7.03
2022-11-05T21:39:56.990Z,6.93
2022-11-05T21:42:25.469Z,5.93
2022-11-05T21:45:00.014Z,4.88
2022-11-05T21:47:29.167Z,4.40
2022-11-05T21:49:57.461Z,4.38
2022-11-05T21:52:43.489Z,3.17
2022-11-05T21:55:36.559Z,6.47
2022-11-05T21:58:29.303Z,7.43
2022-11-05T22:00:59.020Z,4.72
2022-11-05T22:03:27.656Z,6.35
2022-11-05T22:05:57.741Z,6.68
2022-11-05T22:08:26.421Z,5.18
2022-11-05T22:10:54.664Z,5.68
2022-11-05T22:13:23.084Z,5.13
2022-11-05T22:15:58.929Z,4.18
2022-11-05T22:18:27.266Z,4.18
2022-11-05T22:20:55.692Z,3.60
2022-11-05T22:23:23.943Z,8.82
2022-11-05T22:25:59.139Z,2.58
2022-11-05T22:28:27.589Z,6.03
2022-11-05T22:30:55.941Z,6.97
2022-11-05T22:33:25.646Z,6.15
2022-11-05T22:35:53.881Z,4.18
2022-11-05T22:38:22.189Z,6.45
2022-11-05T22:40:50.470Z,5.70
2022-11-05T22:43:18.721Z,6.50
2022-11-05T22:45:46.942Z,11.15
2022-11-05T22:48:15.672Z,5.63
2022-11-05T22:50:48.663Z,8.27
2022-11-05T22:53:16.975Z,5.13
2022-11-05T22:55:45.348Z,8.80
2022-11-05T22:58:14.068Z,4.47
2022-11-05T23:00:42.638Z,7.40
2022-11-05T23:03:10.885Z,7.10
2022-11-05T23:05:39.266Z,2.10
2022-11-05T23:08:29.399Z,8.57
2022-11-05T23:11:23.278Z,8.25
2022-11-05T23:13:51.518Z,4.85
2022-11-05T23:16:37.277Z,5.38
2022-11-05T23:19:22.646Z,7.82
2022-11-05T23:22:08.233Z,4.38
2022-11-05T23:24:37.836Z,10.18
2022-11-05T23:27:06.115Z,16.08
2022-11-05T23:29:34.544Z,5.38
2022-11-05T23:32:20.728Z,6.95
2022-11-05T23:34:49.051Z,6.75
2022-11-05T23:37:34.996Z,8.52
2022-11-05T23:40:05.708Z,6.50
2022-11-05T23:42:51.935Z,4.80
2022-11-05T23:45:46.927Z,6.45
2022-11-05T23:48:17.881Z,9.80
2022-11-05T23:50:48.873Z,5.93
2022-11-05T23:53:17.635Z,5.40
2022-11-05T23:55:47.242Z,3.00
2022-11-05T23:58:16.210Z,4.93
